Eden, New York
Current Conditions -  °F | °C
As of 11:53 PM on Thursday 30 Oct 2014 (Local Time) from KDKK Reporting Station
Overcast Overcast  
Wind Chill: 43°   Ceiling: 4600
Heat Index: 45°   Visibility: 10mi
Dew Point: 38°   Wind: 5mph
Humidity: 76%   Direction: 170°S
Pressure: 30.02"   Gusts: NA
Location:  42.65°N, 78.9°W
Report Text: KDKK 310353Z AUTO 17004KT 10SM SCT038 OVC046 07/03 A3002 RMK AO2 SLP168 T00720033
Loading
Personal Weather Stations






























Interactive Weather Map New forecast layout! Learn more

10-Day Weather Forecast

Advertisements
Track Severe Weather on mobile